Time;durP1;ratioP1;P1;durP2;ratioP2;P2;SDS_P1;SDS_P2;PMS_P1;PMS_P2;Temp;Humidity;BMP_temperature;BMP_pressure;BME280_temperature;BME280_humidity;BME280_pressure;Samples;Min_cycle;Max_cycle;Signal;HPM_P1;HPM_P2
2022/05/24 00:02:23;;;;;;;12.05;6.28;;;;;;;10.25;79.77;97370.73;1703276;82;20962;-81
2022/05/24 00:04:49;;;;;;;9.70;6.15;;;;;;;10.29;80.33;97373.67;1713688;80;20978;-83
2022/05/24 00:07:15;;;;;;;8.70;6.25;;;;;;;10.31;78.98;97373.63;1740056;81;20878;-86
2022/05/24 00:09:41;;;;;;;11.10;6.60;;;;;;;10.28;78.26;97373.42;1733935;80;21042;-86
2022/05/24 00:12:08;;;;;;;11.40;6.58;;;;;;;10.28;78.93;97368.01;1728557;80;22022;-81
2022/05/24 00:17:20;;;;;;;8.08;6.28;;;;;;;10.26;79.64;97364.25;1715846;82;21001;-82
2022/05/24 00:19:46;;;;;;;12.55;6.80;;;;;;;10.30;79.64;97363.90;1708435;80;21022;-86
2022/05/24 00:22:12;;;;;;;10.13;6.17;;;;;;;10.36;79.91;97369.50;1703141;82;21010;-81
2022/05/24 00:24:37;;;;;;;9.55;5.97;;;;;;;10.40;78.64;97367.00;1717033;80;21270;-85
2022/05/24 00:27:04;;;;;;;10.40;6.33;;;;;;;10.45;78.75;97358.27;1705064;82;20946;-85
2022/05/24 00:29:30;;;;;;;10.70;7.83;;;;;;;10.49;79.47;97359.02;1711693;80;21005;-85
2022/05/24 00:31:56;;;;;;;10.60;6.58;;;;;;;10.52;78.86;97356.54;1725060;80;20930;-86
2022/05/24 00:34:22;;;;;;;11.53;6.72;;;;;;;10.53;78.48;97362.76;1728080;80;21031;-86
2022/05/24 00:36:48;;;;;;;10.72;6.78;;;;;;;10.53;78.48;97362.76;1728599;80;21361;-82
2022/05/24 00:39:14;;;;;;;11.10;6.70;;;;;;;10.55;77.94;97362.71;1717288;82;20950;-85
2022/05/24 00:41:43;;;;;;;10.93;6.37;;;;;;;10.55;77.35;97353.78;1729208;80;20913;-86
2022/05/24 00:44:27;;;;;;;11.95;6.67;;;;;;;10.53;78.30;97351.92;1743155;82;21592;-81
2022/05/24 00:47:03;;;;;;;9.65;6.45;;;;;;;10.55;77.23;97353.23;1741726;81;20970;-81
2022/05/24 00:49:45;;;;;;;12.85;7.25;;;;;;;10.56;77.08;97355.39;1741588;82;21045;-85
2022/05/24 00:52:19;;;;;;;10.65;7.28;;;;;;;10.58;79.08;97352.62;1746013;81;21005;-85
2022/05/24 00:54:45;;;;;;;11.83;6.33;;;;;;;10.56;79.34;97348.06;1718893;82;21077;-81
2022/05/24 00:57:25;;;;;;;11.08;6.70;;;;;;;10.56;77.69;97349.97;1725145;80;21518;-86
2022/05/24 01:00:05;;;;;;;10.78;6.87;;;;;;;10.48;78.75;97346.02;1721495;80;21030;-85
2022/05/24 01:02:31;;;;;;;11.97;7.22;;;;;;;10.47;77.68;97340.35;1713560;82;21087;-85
2022/05/24 01:04:57;;;;;;;9.08;6.05;;;;;;;10.45;77.76;97332.53;1718023;80;21461;-82
2022/05/24 01:07:23;;;;;;;11.70;7.70;;;;;;;10.50;77.84;97338.40;1741908;81;20854;-85
2022/05/24 01:10:02;;;;;;;11.93;6.90;;;;;;;10.52;77.31;97340.84;1743105;82;21301;-87
2022/05/24 01:12:32;;;;;;;11.25;7.28;;;;;;;10.54;77.53;97338.63;1741141;82;21029;-81
2022/05/24 01:15:01;;;;;;;11.45;7.10;;;;;;;10.47;79.33;97333.58;1736267;80;22056;-86
2022/05/24 01:17:27;;;;;;;10.93;6.40;;;;;;;10.49;79.47;97335.98;1703448;82;21058;-86
2022/05/24 01:19:52;;;;;;;11.22;6.55;;;;;;;10.46;80.95;97326.56;1730811;80;20969;-85
2022/05/24 01:22:42;;;;;;;11.00;7.53;;;;;;;10.47;80.31;97326.01;1743181;81;20842;-86
2022/05/24 01:25:22;;;;;;;11.60;6.28;;;;;;;10.52;78.10;97328.65;1743495;80;21513;-85
2022/05/24 01:27:48;;;;;;;15.48;5.95;;;;;;;10.52;78.10;97328.65;1742641;81;21076;-86
2022/05/24 01:30:14;;;;;;;9.38;6.05;;;;;;;10.49;78.37;97320.54;1719908;80;20887;-85
2022/05/24 01:38:12;;;;;;;8.50;5.67;;;;;;;10.47;78.61;97317.88;1718170;81;21035;-85
2022/05/24 01:40:38;;;;;;;10.35;6.37;;;;;;;10.46;79.92;97311.66;1739323;80;22006;-85
2022/05/24 01:43:05;;;;;;;10.72;6.33;;;;;;;10.43;78.90;97301.43;1743049;81;20941;-86
2022/05/24 01:45:35;;;;;;;8.43;6.03;;;;;;;10.41;80.42;97311.18;1715778;82;21090;-81
2022/05/24 01:48:13;;;;;;;10.30;6.30;;;;;;;10.43;80.30;97303.59;1703106;83;20995;-86
2022/05/24 01:50:39;;;;;;;7.93;5.10;;;;;;;10.48;79.04;97301.88;1743436;80;21449;-81
2022/05/24 01:53:16;;;;;;;9.23;5.87;;;;;;;10.45;79.03;97310.06;1743064;81;21099;-81
2022/05/24 01:55:48;;;;;;;6.85;4.87;;;;;;;10.40;78.82;97300.09;1705894;82;21034;-81
2022/05/24 01:58:16;;;;;;;7.97;6.00;;;;;;;10.34;80.11;97301.30;1702038;82;21029;-80
2022/05/24 02:00:46;;;;;;;8.23;6.22;;;;;;;10.35;80.14;97304.81;1693754;82;21018;-85
2022/05/24 02:03:12;;;;;;;9.08;5.87;;;;;;;10.39;80.15;97300.40;1683406;83;21116;-80
2022/05/24 02:05:40;;;;;;;9.65;5.12;;;;;;;10.38;81.82;97295.53;1678101;83;21277;-80
2022/05/24 02:08:07;;;;;;;6.42;5.25;;;;;;;10.39;80.33;97298.49;1694809;84;21012;-85
2022/05/24 02:10:44;;;;;;;7.05;5.17;;;;;;;10.35;81.16;97296.13;1698531;84;21032;-81
2022/05/24 02:13:10;;;;;;;6.58;4.85;;;;;;;10.36;80.99;97290.97;1694811;83;21004;-81
2022/05/24 02:15:38;;;;;;;9.80;5.58;;;;;;;10.36;83.38;97280.69;1742748;80;20957;-81
2022/05/24 02:18:10;;;;;;;7.73;5.57;;;;;;;10.41;81.29;97280.03;1743218;81;21143;-81
2022/05/24 02:20:42;;;;;;;6.05;4.70;;;;;;;10.42;80.98;97279.48;1742794;82;21020;-81
2022/05/24 02:23:09;;;;;;;8.18;5.10;;;;;;;10.45;80.51;97281.06;1743043;81;21056;-85
2022/05/24 02:25:49;;;;;;;6.45;4.97;;;;;;;10.50;81.33;97278.80;1728157;82;21437;-81
2022/05/24 02:28:15;;;;;;;6.95;4.30;;;;;;;10.54;81.30;97279.84;1709449;80;21540;-86
2022/05/24 02:30:55;;;;;;;5.47;4.75;;;;;;;10.56;80.80;97274.12;1734908;80;21129;-85
2022/05/24 02:33:22;;;;;;;7.42;5.45;;;;;;;10.52;80.60;97275.27;1714390;80;21066;-81
2022/05/24 02:35:48;;;;;;;6.05;4.62;;;;;;;10.47;81.84;97265.06;1728293;80;21509;-81
2022/05/24 02:38:14;;;;;;;8.20;4.72;;;;;;;10.47;81.52;97267.77;1728005;80;21046;-81
2022/05/24 02:43:24;;;;;;;6.80;4.95;;;;;;;10.44;81.72;97274.05;1728568;80;21630;-85
2022/05/24 02:45:50;;;;;;;6.72;4.50;;;;;;;10.48;81.37;97265.31;1725889;82;21611;-86
2022/05/24 02:48:16;;;;;;;9.73;5.33;;;;;;;10.48;82.09;97269.38;1739109;80;20894;-86
2022/05/24 02:50:42;;;;;;;7.62;4.33;;;;;;;10.48;82.04;97269.38;1728478;80;20847;-86
2022/05/24 02:53:08;;;;;;;7.10;4.72;;;;;;;10.49;80.92;97273.69;1730838;81;21705;-85
2022/05/24 02:55:34;;;;;;;5.30;4.35;;;;;;;10.47;83.10;97269.12;1714627;80;21086;-86
2022/05/24 02:58:00;;;;;;;10.65;5.10;;;;;;;10.46;82.55;97266.97;1728320;81;20938;-86
2022/05/24 03:00:26;;;;;;;7.78;4.10;;;;;;;10.50;82.30;97268.52;1718088;80;20982;-86
2022/05/24 03:02:52;;;;;;;8.65;4.70;;;;;;;10.50;82.73;97264.46;1726324;81;20942;-86
2022/05/24 03:05:18;;;;;;;9.78;4.65;;;;;;;10.52;81.96;97267.15;1731127;82;20997;-86
2022/05/24 03:10:30;;;;;;;16.85;5.10;;;;;;;10.55;81.93;97264.38;1733695;80;20993;-85
2022/05/24 03:15:42;;;;;;;8.45;4.65;;;;;;;10.58;82.37;97265.94;1740973;82;21013;-85
2022/05/24 03:18:09;;;;;;;7.08;5.37;;;;;;;10.60;81.51;97266.47;1743056;81;21013;-81
2022/05/24 03:20:34;;;;;;;6.92;4.53;;;;;;;10.67;81.60;97266.05;1718471;82;21467;-80
2022/05/24 03:23:02;;;;;;;5.90;4.58;;;;;;;10.72;81.55;97267.33;1702830;84;22427;-86
2022/05/24 03:25:30;;;;;;;8.00;4.37;;;;;;;10.78;82.72;97266.70;1727856;80;21493;-85
2022/05/24 03:27:56;;;;;;;7.17;4.47;;;;;;;10.83;80.96;97252.48;1728267;81;21486;-85
2022/05/24 03:30:22;;;;;;;11.50;5.30;;;;;;;10.84;81.11;97245.16;1741631;80;20878;-81
2022/05/24 03:32:49;;;;;;;8.13;4.12;;;;;;;10.92;80.93;97264.23;1743108;81;21204;-85
2022/05/24 03:35:15;;;;;;;6.60;4.28;;;;;;;10.99;80.90;97263.84;1740838;82;21080;-81
2022/05/24 03:37:41;;;;;;;7.62;4.87;;;;;;;11.05;81.35;97271.34;1713262;83;20990;-81
2022/05/24 03:40:08;;;;;;;9.33;4.70;;;;;;;11.10;81.30;97267.96;1724607;80;21050;-81
2022/05/24 03:42:35;;;;;;;14.63;5.35;;;;;;;11.10;81.03;97263.89;1728332;81;21022;-80
2022/05/24 03:45:01;;;;;;;5.92;4.25;;;;;;;11.15;81.00;97267.07;1737209;80;22222;-81
2022/05/24 03:47:27;;;;;;;7.92;4.45;;;;;;;11.21;80.98;97270.74;1742840;81;21064;-85
2022/05/24 03:49:53;;;;;;;9.58;4.60;;;;;;;11.25;81.29;97271.73;1742997;82;20949;-84
2022/05/24 03:52:19;;;;;;;7.10;4.83;;;;;;;11.25;81.51;97269.57;1736487;81;21024;-86
2022/05/24 03:54:45;;;;;;;9.65;5.00;;;;;;;11.30;80.87;97272.20;1720184;80;20970;-81
2022/05/24 03:59:40;;;;;;;8.95;4.62;;;;;;;11.46;80.93;97274.84;1707792;82;21481;-86
2022/05/24 04:02:05;;;;;;;5.50;4.80;;;;;;;11.52;79.59;97279.05;1716037;83;21011;-81
2022/05/24 04:04:32;;;;;;;5.35;4.17;;;;;;;11.54;80.52;97276.85;1722283;80;21413;-86
2022/05/24 04:06:57;;;;;;;7.00;4.15;;;;;;;11.59;81.19;97279.99;1704897;82;20914;-81
2022/05/24 04:09:23;;;;;;;7.15;4.97;;;;;;;11.68;80.19;97279.52;1721174;80;21440;-81
2022/05/24 04:11:51;;;;;;;7.17;4.92;;;;;;;11.76;80.38;97277.45;1721164;82;21538;-85
2022/05/24 04:14:17;;;;;;;6.62;4.92;;;;;;;11.81;79.88;97273.31;1713107;81;21476;-85
2022/05/24 04:16:43;;;;;;;10.00;8.20;;;;;;;11.86;79.45;97273.17;1722945;82;20943;-81
2022/05/24 04:19:09;;;;;;;11.30;7.35;;;;;;;11.95;79.70;97279.23;1719786;80;21042;-81
2022/05/24 04:21:35;;;;;;;8.55;5.37;;;;;;;12.04;79.41;97269.25;1728531;80;21308;-81
2022/05/24 04:24:02;;;;;;;8.40;4.95;;;;;;;12.15;78.82;97272.00;1730532;80;21037;-81
2022/05/24 04:26:27;;;;;;;8.23;5.53;;;;;;;12.29;78.41;97274.08;1707812;82;20989;-81
2022/05/24 04:28:53;;;;;;;9.55;6.65;;;;;;;12.39;78.49;97273.86;1714434;80;22260;-85
2022/05/24 04:31:19;;;;;;;11.53;7.62;;;;;;;12.53;78.14;97270.26;1728161;82;20915;-81
2022/05/24 04:33:45;;;;;;;18.95;8.23;;;;;;;12.65;77.59;97277.30;1719766;80;21285;-84
2022/05/24 04:36:11;;;;;;;10.72;6.95;;;;;;;12.74;77.47;97275.44;1743037;82;21579;-85
2022/05/24 04:38:37;;;;;;;9.55;6.83;;;;;;;12.87;77.11;97286.77;1742855;81;20914;-81
2022/05/24 04:43:47;;;;;;;14.80;10.98;;;;;;;13.13;74.98;97286.89;1738591;80;21109;-81
2022/05/24 04:46:13;;;;;;;18.60;12.65;;;;;;;13.25;74.79;97284.98;1728562;80;21263;-86
2022/05/24 04:48:39;;;;;;;14.63;6.65;;;;;;;13.39;74.84;97282.13;1728079;80;21006;-80
2022/05/24 04:51:05;;;;;;;17.98;5.00;;;;;;;13.51;74.46;97291.31;1727957;80;21070;-85
2022/05/24 04:53:31;;;;;;;12.90;5.03;;;;;;;13.65;73.75;97284.92;1721855;81;20992;-82
2022/05/24 04:55:57;;;;;;;11.90;4.70;;;;;;;13.72;73.64;97284.70;1742951;82;20910;-81
2022/05/24 04:58:23;;;;;;;5.28;4.12;;;;;;;13.80;73.08;97286.64;1742774;81;21975;-81
2022/05/24 05:00:49;;;;;;;8.98;4.00;;;;;;;13.86;72.37;97286.50;1733859;82;20938;-82
2022/05/24 05:03:17;;;;;;;7.33;4.50;;;;;;;13.90;71.35;97283.37;1735921;80;21732;-81
2022/05/24 05:05:44;;;;;;;10.60;4.33;;;;;;;13.89;71.23;97280.41;1740225;82;21448;-81
2022/05/24 05:08:10;;;;;;;8.73;4.60;;;;;;;13.92;71.13;97283.28;1707396;80;21104;-80
2022/05/24 05:10:37;;;;;;;5.83;4.28;;;;;;;13.98;70.82;97282.58;1729484;80;20945;-85
2022/05/24 05:13:03;;;;;;;7.12;4.15;;;;;;;14.03;70.80;97285.16;1734101;82;21004;-81
2022/05/24 05:15:29;;;;;;;10.72;4.70;;;;;;;14.08;70.16;97290.43;1727328;80;21032;-81
2022/05/24 05:18:08;;;;;;;10.03;4.08;;;;;;;14.14;69.72;97294.61;1742947;81;20913;-85
2022/05/24 05:20:39;;;;;;;10.08;3.55;;;;;;;14.11;69.15;97291.97;1742296;82;21512;-86
2022/05/24 05:23:05;;;;;;;8.83;4.33;;;;;;;14.09;69.34;97305.09;1717401;82;21147;-85
2022/05/24 05:25:30;;;;;;;11.18;5.03;;;;;;;14.10;69.64;97302.63;1746236;80;21509;-82
2022/05/24 05:27:56;;;;;;;8.23;5.10;;;;;;;14.14;69.56;97297.89;1742969;81;21196;-85
2022/05/24 05:33:07;;;;;;;10.55;4.28;;;;;;;14.14;70.99;97287.80;1731474;82;21037;-85
2022/05/24 05:35:33;;;;;;;17.70;5.53;;;;;;;14.20;71.04;97278.34;1711861;82;21514;-86
2022/05/24 05:38:00;;;;;;;13.93;4.03;;;;;;;14.26;71.03;97283.05;1720734;82;21492;-86
2022/05/24 05:40:26;;;;;;;7.90;3.60;;;;;;;14.34;70.97;97287.70;1734476;82;21053;-86
2022/05/24 05:42:51;;;;;;;8.70;4.58;;;;;;;14.38;70.39;97281.30;1732800;82;21329;-85
2022/05/24 05:45:18;;;;;;;8.45;5.50;;;;;;;14.42;70.08;97289.63;1723393;82;22572;-86
2022/05/24 05:47:44;;;;;;;6.37;4.35;;;;;;;14.46;70.12;97291.99;1728775;82;21327;-86
2022/05/24 05:50:09;;;;;;;9.13;5.62;;;;;;;14.61;69.65;97293.39;1730876;82;21038;-86
2022/05/24 05:52:35;;;;;;;9.15;4.42;;;;;;;14.77;69.34;97305.96;1732212;82;20961;-81
2022/05/24 05:55:02;;;;;;;11.08;4.70;;;;;;;14.85;68.71;97301.85;1727983;80;21080;-86
2022/05/24 05:57:28;;;;;;;9.95;5.30;;;;;;;14.92;68.61;97315.00;1729440;80;21019;-86
2022/05/24 05:59:54;;;;;;;11.93;4.62;;;;;;;15.00;68.37;97310.09;1723754;80;21756;-86
2022/05/24 06:02:19;;;;;;;9.13;3.87;;;;;;;15.14;68.37;97318.88;1718780;82;20839;-86
2022/05/24 06:04:45;;;;;;;12.68;4.90;;;;;;;15.28;68.17;97315.12;1726458;80;20878;-86
2022/05/24 06:07:11;;;;;;;7.50;3.72;;;;;;;15.38;67.40;97312.86;1732955;82;20969;-85
2022/05/24 06:09:37;;;;;;;4.00;3.22;;;;;;;15.44;66.65;97309.36;1727228;80;21043;-86
2022/05/24 06:12:04;;;;;;;7.80;4.97;;;;;;;15.47;65.90;97309.53;1728782;80;21000;-86
2022/05/24 06:14:30;;;;;;;14.33;6.58;;;;;;;15.44;65.60;97314.26;1725732;82;21019;-86
2022/05/24 06:16:56;;;;;;;8.10;5.45;;;;;;;15.43;65.49;97316.75;1727343;81;20861;-86
2022/05/24 06:19:22;;;;;;;10.63;5.53;;;;;;;15.41;65.92;97324.48;1722682;80;21506;-86
2022/05/24 06:21:48;;;;;;;10.00;6.22;;;;;;;15.48;65.66;97325.34;1729694;80;20897;-85
2022/05/24 06:24:15;;;;;;;7.12;6.03;;;;;;;15.55;64.85;97324.23;1725406;81;21303;-86
2022/05/24 06:26:41;;;;;;;11.75;7.53;;;;;;;15.56;65.05;97333.27;1735234;80;21152;-86
2022/05/24 06:29:07;;;;;;;12.75;6.42;;;;;;;15.64;64.45;97329.72;1702659;81;20895;-86
2022/05/24 06:31:33;;;;;;;11.18;5.25;;;;;;;15.67;64.22;97331.22;1736687;80;21599;-85
2022/05/24 06:33:59;;;;;;;13.43;5.67;;;;;;;15.71;63.70;97324.52;1730890;80;21009;-85
2022/05/24 06:36:25;;;;;;;7.33;4.30;;;;;;;15.82;64.18;97326.33;1731544;80;21957;-81
2022/05/24 06:38:50;;;;;;;10.48;5.28;;;;;;;15.93;63.77;97334.37;1733145;80;20978;-81
2022/05/24 06:41:16;;;;;;;5.45;3.33;;;;;;;16.03;63.75;97336.14;1732296;80;20941;-81
2022/05/24 06:43:42;;;;;;;8.33;3.62;;;;;;;16.20;63.26;97340.69;1734012;80;20868;-81
2022/05/24 06:46:08;;;;;;;14.80;4.25;;;;;;;16.24;62.71;97337.55;1736745;80;20976;-86
2022/05/24 06:48:36;;;;;;;6.67;4.62;;;;;;;16.20;63.11;97337.16;1734314;80;21128;-85
2022/05/24 06:51:10;;;;;;;8.18;4.40;;;;;;;16.25;63.15;97338.34;1730935;80;20990;-86
2022/05/24 06:53:38;;;;;;;6.40;4.33;;;;;;;16.35;62.25;97345.58;1732946;80;21359;-86
2022/05/24 06:56:05;;;;;;;4.90;3.20;;;;;;;16.33;61.98;97340.21;1731613;80;21511;-86
2022/05/24 06:58:32;;;;;;;7.65;3.75;;;;;;;16.32;61.72;97336.68;1693524;82;21520;-86
2022/05/24 07:03:42;;;;;;;12.35;4.75;;;;;;;16.34;62.41;97336.34;1730197;80;21040;-80
2022/05/24 07:06:12;;;;;;;8.50;3.95;;;;;;;16.48;62.29;97343.69;1733911;80;21000;-86
2022/05/24 07:08:36;;;;;;;9.23;4.00;;;;;;;16.54;62.22;97334.16;1732291;80;21542;-86
2022/05/24 07:11:02;;;;;;;7.12;4.40;;;;;;;16.64;61.94;97338.41;1732033;80;21072;-86
2022/05/24 07:13:28;;;;;;;4.92;3.27;;;;;;;16.75;61.12;97342.38;1734676;80;21149;-87
2022/05/24 07:15:54;;;;;;;7.33;3.90;;;;;;;16.78;61.39;97340.91;1733661;80;22094;-86
2022/05/24 07:18:20;;;;;;;6.58;3.95;;;;;;;16.86;60.99;97343.56;1731786;80;20902;-86
2022/05/24 07:20:46;;;;;;;7.12;4.47;;;;;;;16.93;61.34;97338.11;1733751;80;22610;-86
2022/05/24 07:23:16;;;;;;;8.38;4.37;;;;;;;17.14;61.50;97342.95;1732800;80;21009;-86
2022/05/24 07:25:42;;;;;;;10.98;3.95;;;;;;;17.34;61.22;97333.05;1693890;82;21813;-86
2022/05/24 07:28:09;;;;;;;7.80;4.00;;;;;;;17.48;60.49;97330.80;1724487;80;21008;-86
2022/05/24 07:30:35;;;;;;;5.05;3.72;;;;;;;17.53;60.07;97334.70;1733303;80;21003;-86
2022/05/24 07:33:01;;;;;;;6.50;3.95;;;;;;;17.47;59.95;97334.69;1731381;80;20931;-86
2022/05/24 07:35:27;;;;;;;9.05;3.95;;;;;;;17.48;60.28;97334.91;1733489;80;20961;-86
2022/05/24 07:37:53;;;;;;;10.13;4.85;;;;;;;17.50;60.10;97339.47;1720688;80;21121;-87
2022/05/24 07:48:13;;;;;;;10.25;5.30;;;;;;;17.43;58.82;97335.12;1709150;80;20915;-86
2022/05/24 07:50:39;;;;;;;12.90;4.47;;;;;;;17.40;58.93;97340.72;1730168;80;21304;-86
2022/05/24 07:53:05;;;;;;;7.50;4.87;;;;;;;17.37;59.50;97340.61;1733938;80;20971;-85
2022/05/24 07:55:31;;;;;;;8.30;4.75;;;;;;;17.46;58.91;97331.72;1733478;80;20907;-85
2022/05/24 07:58:00;;;;;;;6.87;4.55;;;;;;;17.42;59.15;97331.58;1736449;80;20874;-86
2022/05/24 08:00:27;;;;;;;6.80;3.95;;;;;;;17.57;58.88;97326.58;1733442;80;36798;-86
2022/05/24 08:02:53;;;;;;;5.78;3.60;;;;;;;17.72;59.59;97332.79;1734254;80;21901;-86
2022/05/24 08:05:20;;;;;;;15.28;4.75;;;;;;;17.94;58.98;97340.52;1737117;80;21652;-86
2022/05/24 08:07:46;;;;;;;7.58;3.70;;;;;;;18.09;58.33;97333.55;1727430;80;21087;-86
2022/05/24 08:10:13;;;;;;;5.92;3.90;;;;;;;18.10;57.88;97335.14;1734407;80;20937;-87
2022/05/24 08:12:39;;;;;;;9.73;4.12;;;;;;;18.21;58.55;97336.29;1733080;80;21603;-87
2022/05/24 08:15:06;;;;;;;9.68;4.20;;;;;;;18.55;58.78;97337.69;1696414;82;21818;-87
2022/05/24 08:17:34;;;;;;;9.55;5.08;;;;;;;18.93;57.98;97335.61;1734064;80;21433;-87
2022/05/24 08:20:00;;;;;;;9.13;5.30;;;;;;;19.24;56.79;97337.06;1715073;80;21079;-87
2022/05/24 08:22:26;;;;;;;11.20;4.65;;;;;;;19.55;56.84;97334.88;1718523;80;21032;-86
2022/05/24 08:24:52;;;;;;;7.87;3.80;;;;;;;19.98;56.12;97335.95;1725427;80;21139;-86
2022/05/24 08:27:18;;;;;;;12.90;4.05;;;;;;;20.08;55.26;97335.42;1723363;80;21276;-86
2022/05/24 08:29:47;;;;;;;8.63;3.95;;;;;;;20.55;54.71;97337.24;1728293;80;21056;-86
2022/05/24 08:32:13;;;;;;;7.80;3.40;;;;;;;20.93;54.26;97338.39;1714707;80;21049;-86
2022/05/24 08:34:39;;;;;;;7.67;4.03;;;;;;;20.86;52.65;97330.81;1731015;80;20958;-86
2022/05/24 08:37:06;;;;;;;10.08;4.08;;;;;;;21.15;53.36;97328.01;1721682;82;21112;-87
2022/05/24 08:39:32;;;;;;;7.10;3.77;;;;;;;21.60;52.52;97328.63;1722262;80;21101;-86
2022/05/24 08:42:35;;;;;;;5.83;3.22;;;;;;;21.84;50.64;97317.00;1722461;80;21147;-87
2022/05/24 08:48:26;;;;;;;;;;;;;;;22.01;49.08;97321.98;1728963;80;20977;-82
2022/05/24 08:51:15;;;;;;;8.08;3.08;;;;;;;22.07;48.29;97323.30;1706951;82;20456;-82
2022/05/24 08:53:47;;;;;;;5.60;3.22;;;;;;;21.83;46.95;97325.06;1718095;80;21260;-82
2022/05/24 08:56:31;;;;;;;7.08;2.92;;;;;;;21.69;47.27;97329.17;1729335;80;21013;-82
2022/05/24 08:59:23;;;;;;;8.35;4.92;;;;;;;21.71;47.21;97319.17;1700451;81;21060;-82
2022/05/24 09:01:49;;;;;;;5.50;3.65;;;;;;;21.61;47.73;97320.56;1719732;80;21080;-82
2022/05/24 09:04:15;;;;;;;9.28;4.28;;;;;;;21.87;47.24;97320.38;1721280;80;21068;-82
2022/05/24 09:07:01;;;;;;;10.23;3.25;;;;;;;22.10;47.33;97324.52;1724258;81;21278;-82
2022/05/24 09:09:53;;;;;;;7.40;3.12;;;;;;;21.92;46.91;97322.84;1710997;81;20998;-82
2022/05/24 09:12:34;;;;;;;4.83;2.83;;;;;;;22.39;46.12;97319.63;1722677;80;21087;-82
2022/05/24 09:19:17;;;;;;;4.10;3.02;;;;;;;22.21;46.45;97313.04;1721905;81;21135;-82
2022/05/24 09:21:44;;;;;;;4.87;2.95;;;;;;;22.21;46.32;97312.45;1729418;80;21286;-82
2022/05/24 09:24:40;;;;;;;5.17;3.15;;;;;;;22.24;46.02;97317.83;1722451;80;21019;-82
2022/05/24 09:27:14;;;;;;;5.75;3.00;;;;;;;22.29;46.40;97314.73;1719203;80;21591;-81
2022/05/24 09:30:19;;;;;;;9.40;2.83;;;;;;;22.38;46.41;97308.34;1727749;80;21060;-82
2022/05/24 09:32:48;;;;;;;6.67;3.17;;;;;;;22.62;46.62;97312.60;1673028;84;21116;-82
2022/05/24 09:35:22;;;;;;;5.78;3.20;;;;;;;22.86;46.04;97316.08;1671208;83;21207;-82
2022/05/24 09:38:14;;;;;;;6.42;3.08;;;;;;;22.79;45.57;97324.45;1696316;82;21130;-82
2022/05/24 09:40:54;;;;;;;6.37;2.92;;;;;;;22.89;45.78;97320.25;1661650;84;21700;-82
2022/05/24 09:43:30;;;;;;;5.40;2.70;;;;;;;23.60;44.08;97320.22;1668389;83;21524;-82
2022/05/24 09:46:21;;;;;;;6.92;3.35;;;;;;;24.52;42.18;97320.65;1715915;80;21108;-82
2022/05/24 09:49:24;;;;;;;9.48;3.67;;;;;;;24.18;42.85;97324.41;1720708;80;21252;-82
2022/05/24 09:51:55;;;;;;;4.67;3.10;;;;;;;24.03;42.80;97321.34;1718704;80;21130;-82
2022/05/24 09:54:24;;;;;;;7.95;3.33;;;;;;;23.89;42.99;97319.25;1716193;80;21075;-82
2022/05/24 09:57:09;;;;;;;7.47;3.02;;;;;;;24.11;41.82;97316.66;1706177;80;21088;-82
2022/05/24 09:59:40;;;;;;;4.45;2.60;;;;;;;24.16;41.96;97313.50;1722018;80;21553;-82
2022/05/24 10:02:25;;;;;;;5.37;2.72;;;;;;;24.07;41.31;97313.84;1694981;82;21196;-82
2022/05/24 10:04:51;;;;;;;10.00;3.37;;;;;;;24.39;42.10;97314.08;1724712;80;21548;-82
2022/05/24 10:07:26;;;;;;;5.78;2.90;;;;;;;24.33;42.20;97313.44;1717443;80;20943;-82
2022/05/24 10:10:17;;;;;;;5.45;3.33;;;;;;;24.41;42.40;97313.09;1711117;82;21135;-82
2022/05/24 10:13:25;;;;;;;9.33;3.00;;;;;;;24.54;41.92;97316.33;1710332;81;21093;-82
2022/05/24 10:16:03;;;;;;;6.70;3.12;;;;;;;24.46;41.25;97311.94;1726340;80;21295;-82
2022/05/24 10:18:54;;;;;;;5.30;2.87;;;;;;;24.42;40.42;97315.27;1732804;80;21177;-82
2022/05/24 10:21:37;;;;;;;4.50;2.70;;;;;;;25.29;39.32;97316.59;1725991;80;20918;-82
2022/05/24 10:24:27;;;;;;;4.90;2.67;;;;;;;25.78;38.82;97307.55;1727077;80;21148;-82
2022/05/24 10:27:08;;;;;;;3.40;2.27;;;;;;;26.11;37.77;97306.33;1723689;80;21112;-82
2022/05/24 10:30:06;;;;;;;8.60;3.20;;;;;;;27.09;36.11;97308.43;1725532;80;21085;-82
2022/05/24 10:39:03;;;;;;;5.45;2.42;;;;;;;27.36;35.63;97291.97;1665763;80;21021;-83
2022/05/24 10:41:52;;;;;;;5.17;2.40;;;;;;;27.52;35.43;97297.81;1727666;80;21091;-82
2022/05/24 10:44:39;;;;;;;6.72;2.58;;;;;;;27.60;35.36;97301.30;1721681;80;21262;-82
2022/05/24 10:47:15;;;;;;;9.28;3.40;;;;;;;27.07;33.80;97305.23;1712838;80;21412;-82
2022/05/24 10:49:50;;;;;;;8.03;2.65;;;;;;;27.36;35.15;97293.36;1715992;80;21054;-88
2022/05/24 10:53:05;;;;;;;4.25;2.33;;;;;;;27.61;33.99;97297.95;1735430;80;21422;-88
2022/05/24 10:55:36;;;;;;;10.32;2.75;;;;;;;27.91;33.88;97296.72;1732258;80;21046;-89
2022/05/24 10:58:11;;;;;;;9.38;3.20;;;;;;;27.40;33.24;97291.93;1730385;80;21104;-89
2022/05/24 11:00:46;;;;;;;8.55;2.95;;;;;;;26.89;34.16;97290.63;1722811;80;21084;-89
2022/05/24 11:03:16;;;;;;;5.05;2.47;;;;;;;26.67;35.10;97299.06;1730774;80;21542;-89
2022/05/24 11:05:54;;;;;;;5.08;3.08;;;;;;;26.55;34.53;97291.16;1736510;80;21163;-87
2022/05/24 11:08:50;;;;;;;5.35;2.50;;;;;;;27.89;34.14;97289.98;1721145;80;21174;-82
2022/05/24 11:11:36;;;;;;;7.62;2.40;;;;;;;28.51;32.24;97296.72;1734837;81;21136;-82
2022/05/24 11:14:29;;;;;;;4.62;2.75;;;;;;;28.42;32.82;97289.47;1654431;83;21145;-83
2022/05/24 11:16:56;;;;;;;8.93;3.08;;;;;;;29.02;32.83;97288.55;1727944;80;21073;-83
2022/05/24 11:19:31;;;;;;;5.97;3.22;;;;;;;29.25;31.99;97287.23;1727339;80;21568;-82
2022/05/24 11:22:19;;;;;;;7.80;2.40;;;;;;;28.60;31.75;97287.86;1707577;80;21100;-88
2022/05/24 11:25:25;;;;;;;6.50;3.67;;;;;;;27.99;33.04;97285.70;1725528;80;21153;-83
2022/05/24 11:28:05;;;;;;;7.33;3.47;;;;;;;27.29;33.70;97282.88;1712094;80;21103;-82
2022/05/24 11:30:40;;;;;;;5.03;3.60;;;;;;;26.42;34.69;97284.48;1722393;80;21465;-82
2022/05/24 11:33:11;;;;;;;7.00;5.17;;;;;;;26.00;35.40;97282.56;1722960;80;21013;-82
2022/05/24 11:35:41;;;;;;;7.42;5.92;;;;;;;25.87;35.86;97283.56;1727550;80;20977;-82
2022/05/24 11:38:30;;;;;;;9.73;4.35;;;;;;;27.89;33.61;97283.03;1735983;80;21165;-82
2022/05/24 11:41:12;;;;;;;4.55;3.12;;;;;;;27.38;34.15;97285.39;1723283;81;21477;-82
2022/05/24 11:43:46;;;;;;;5.55;3.50;;;;;;;27.02;35.61;97281.23;1696409;80;21058;-82
2022/05/24 11:46:38;;;;;;;8.73;3.20;;;;;;;26.73;35.98;97288.31;1729413;80;21111;-82
2022/05/24 11:49:14;;;;;;;5.78;2.50;;;;;;;26.66;36.17;97289.16;1723891;81;21034;-82
2022/05/24 11:51:56;;;;;;;4.47;2.70;;;;;;;26.46;36.39;97290.01;1726537;80;21068;-82
2022/05/24 11:54:28;;;;;;;6.15;2.87;;;;;;;26.41;36.63;97292.02;1735867;80;21069;-82
2022/05/24 11:57:09;;;;;;;13.40;7.17;;;;;;;26.79;35.98;97281.14;1727960;80;21022;-88
2022/05/24 11:59:46;;;;;;;3.87;3.00;;;;;;;27.83;34.80;97279.89;1735778;80;21489;-89
2022/05/24 12:07:54;;;;;;;8.63;2.70;;;;;;;30.25;32.65;97284.22;1728580;80;21001;-87
2022/05/24 12:08:00;;;;;;;6.83;2.10;;;;;;;32.61;27.13;97271.17;1740133;80;21120;-83
2022/05/24 12:10:43;;;;;;;3.62;2.10;;;;;;;32.79;26.13;97264.43;1680099;83;21207;-83
2022/05/24 12:13:29;;;;;;;5.05;2.33;;;;;;;34.13;26.77;97269.05;1658597;83;21083;-83
2022/05/24 12:15:58;;;;;;;5.42;3.02;;;;;;;33.83;25.73;97265.60;1673428;83;22261;-90
2022/05/24 12:18:38;;;;;;;9.58;3.30;;;;;;;35.03;25.29;97255.50;1729332;80;21045;-84
2022/05/24 12:21:04;;;;;;;9.73;3.12;;;;;;;36.07;24.76;97257.78;1650950;83;21539;-83
2022/05/24 12:23:49;;;;;;;6.35;3.22;;;;;;;36.64;23.78;97249.63;1732593;80;20930;-83
2022/05/24 12:26:13;;;;;;;4.47;2.20;;;;;;;37.05;22.25;97249.41;1722041;80;21005;-83
2022/05/24 12:28:46;;;;;;;6.20;3.62;;;;;;;36.79;21.89;97246.16;1726856;80;21544;-83
2022/05/24 12:31:27;;;;;;;5.37;2.12;;;;;;;36.67;22.43;97249.33;1733267;80;21205;-83
2022/05/24 12:34:03;;;;;;;3.70;2.40;;;;;;;35.93;23.16;97255.56;1734232;80;21450;-83
2022/05/24 12:36:44;;;;;;;6.70;2.75;;;;;;;34.71;24.37;97262.97;1725481;81;21456;-84
2022/05/24 12:39:17;;;;;;;6.37;2.08;;;;;;;32.50;25.77;97265.27;1721435;80;20998;-87
2022/05/24 12:41:48;;;;;;;5.40;2.42;;;;;;;31.87;26.76;97261.52;1717413;80;21109;-84
2022/05/24 12:44:25;;;;;;;6.20;2.55;;;;;;;30.60;28.59;97253.41;1731918;80;21478;-84